»·PEaware :: N76AC L88-L52

N76AC :: L88-L52

FLIGHT INFORMATION

Flight Status: Arrived
Operator: Privately registered:
United States
More flights under this callsign
Pilot: Andy C. (6694)
Aircraft: CESSNA 172 SKYHAWK
(C172)
More flights by this aircraft type
Origin: L88 New Cuyama
United States
Destination: L52 Oceano Co
United States
More flights between these airports :: More routes between these airports
Route:
File this flight plan on PilotEdge
Remarks: CAT 2
Altitude:
(Current/Filed)
6,500ft
Speed:
(Current/Filed)
110kts
Departed: 01-Jul-19 01:38 PM
Arrived: 01-Jul-19 02:17 PM
Distance/Time
Traveled:
47nm/0:39
Distance/Time
To Go:
Arrived

Flight Plot

Page will automatically refresh every two minutes.


Map Options




Map Legend


Flown Route
Filed Route
Departure Airport
Arrival Airport
Navaid (VOR, NDB)
Fix

Horizontal Profiles

Position Reports

Time Latitude Longitude Heading Altitude Ground
Speed
01-Jul-19 13:34 34.943242 -119.691207 214 2155ft 0kts
01-Jul-19 13:34 34.943242 -119.691207 214 2155ft 0kts
01-Jul-19 13:36 34.943242 -119.691207 214 2155ft 0kts
01-Jul-19 13:37 34.942464 -119.691345 183 2157ft 6kts
01-Jul-19 13:37 34.941650 -119.689755 116 2165ft 43kts
01-Jul-19 13:39 34.928256 -119.672834 204 2730ft 73kts
01-Jul-19 13:39 34.928448 -119.691314 292 3205ft 79kts
01-Jul-19 13:40 34.937262 -119.716079 293 3805ft 80kts
01-Jul-19 13:42 34.949330 -119.744467 295 4484ft 82kts
01-Jul-19 13:42 34.957564 -119.764816 294 5056ft 77kts
01-Jul-19 13:43 34.971499 -119.772298 35 5609ft 82kts
01-Jul-19 13:44 34.983033 -119.786958 286 6185ft 78kts
01-Jul-19 13:45 34.990119 -119.813271 292 6554ft 92kts
01-Jul-19 13:46 35.001712 -119.846682 292 6464ft 111kts
01-Jul-19 13:47 35.012951 -119.880321 292 6428ft 104kts
01-Jul-19 13:48 35.023907 -119.913244 292 6429ft 105kts
01-Jul-19 13:49 35.035027 -119.946578 292 6429ft 106kts
01-Jul-19 13:50 35.046198 -119.980044 292 6429ft 106kts
01-Jul-19 13:51 35.057237 -120.013408 292 6429ft 105kts
01-Jul-19 13:52 35.068042 -120.046698 292 6432ft 105kts
01-Jul-19 13:53 35.078797 -120.079882 292 6434ft 105kts
01-Jul-19 13:54 35.089582 -120.113248 293 6437ft 105kts
01-Jul-19 13:55 35.092050 -120.148443 269 6440ft 106kts
01-Jul-19 13:56 35.090915 -120.184642 269 6442ft 106kts
01-Jul-19 13:57 35.089787 -120.220900 269 6445ft 106kts
01-Jul-19 13:58 35.089391 -120.259047 273 6077ft 123kts
01-Jul-19 13:59 35.090608 -120.301535 273 5460ft 125kts
01-Jul-19 14:00 35.091552 -120.343983 275 4854ft 124kts
01-Jul-19 14:01 35.092821 -120.386274 275 4137ft 124kts
01-Jul-19 14:02 35.084227 -120.426067 246 3323ft 126kts
01-Jul-19 14:03 35.068516 -120.464119 253 2545ft 121kts
01-Jul-19 14:04 35.057352 -120.497645 252 2505ft 98kts
01-Jul-19 14:05 35.047076 -120.527693 252 2507ft 94kts
01-Jul-19 14:06 35.042503 -120.557842 293 2384ft 89kts
01-Jul-19 14:07 35.052078 -120.583134 304 1970ft 82kts
01-Jul-19 14:08 35.068771 -120.601680 5 1107ft 88kts
01-Jul-19 14:09 35.090152 -120.602564 315 469ft 75kts
01-Jul-19 14:10 35.101577 -120.622464 299 18ft 58kts
01-Jul-19 14:11 35.108561 -120.639022 262 614ft 60kts
01-Jul-19 14:12 35.089192 -120.640526 128 1070ft 93kts
01-Jul-19 14:13 35.075975 -120.613555 95 1146ft 84kts
01-Jul-19 14:14 35.089276 -120.599598 309 549ft 61kts
01-Jul-19 14:15 35.098849 -120.617294 300 66ft 50kts
01-Jul-19 14:16 35.102509 -120.623242 301 17ft 11kts
01-Jul-19 14:17 35.103232 -120.624264 216 17ft 2kts
01-Jul-19 14:18 35.103180 -120.624307 213 17ft 0kts
01-Jul-19 14:19 35.103180 -120.624307 213 17ft 0kts
01-Jul-19 14:20 35.103180 -120.624307 213 17ft 0kts
01-Jul-19 14:21 35.103180 -120.624307 213 17ft 0kts
01-Jul-19 14:22 35.103180 -120.624307 213 17ft 0kts
01-Jul-19 14:23 35.103180 -120.624307 213 17ft 0kts
01-Jul-19 14:24 35.103180 -120.624307 213 17ft 0kts
01-Jul-19 14:25 35.103180 -120.624307 213 17ft 0kts

Navigation Log

Ident Type
Flight plan parsing failed, navigation log unavailable